Metlakatla, AK

12:57 AM AKST on February 25, 2018 (GMT -0900)
Centennial Plant | | Change Station

Elev 62 ft 55.12 °N, 131.56 °W | Updated 1 second ago

Mostly Cloudy
Mostly Cloudy
34.0 °F
Feels Like 31 °F
N
3.7
Wind Variable Wind from SSE

Today
High -- | Low -- °F
--% Chance of Precip.
Yesterday
High -- | Low -- °F
Precip. -- in
Pressure 29.43 in
Visibility 10.0 miles
Clouds Few 2100 ft
Mostly Cloudy 3500 ft
Overcast 4300 ft
Windchill 31 °F
Dew Point 32 °F
Humidity 94%
Rainfall 0.00 in
Snow Depth Not available.
6:45 AM 5:14 PM
Waxing Gibbous, 73% visible
METAR PANT 250953Z AUTO VRB03KT 10SM FEW021 BKN035 OVC043 02/01 A2942 RMK AO2 SLP964 T00220011 TSNO
Pressure 29.43 in
Visibility 10.0 miles
Clouds Few 2100 ft
Mostly Cloudy 3500 ft
Overcast 4300 ft
Windchill 31 °F
Dew Point 32 °F
Humidity 94%
Rainfall 0.00 in
Snow Depth Not available.
6:45 AM 5:14 PM
Waxing Gibbous, 73% visible
METAR PANT 250953Z AUTO VRB03KT 10SM FEW021 BKN035 OVC043 02/01 A2942 RMK AO2 SLP964 T00220011 TSNO

Get Severe Weather Alerts

Thanks for signing up!

Be on the lookout for a verification email in your inbox.

You'll start receiving the daily forecast at 6 AM.

×

10-Day Weather Forecast

Almanac

Astronomy

Feb. 25, 2018 Rise Set
Actual Time
Civil Twilight
Nautical Twilight
Astronomical Twilight
Moon
Length of Visible Light
Length of Day
Tomorrow will be .
, % of the Moon is Illuminated

Today's Extremes

State Highs State Lows

Community

WunderPhotos

Category 6

Welcome to Category 6. This is the collective home for Weather Underground's featured writeups by Dr. Jeff Masters (right), Bob Henson (left), Chris Burt, and other regular contributors.

Nearby

Air Quality

  Air Quality AQ Index Pollutant
Not available.

Snow Depth

Station Depth Elevation

Earthquake Activity

City Distance Mag. Time & Date
Minimum magnitude displayed is 2.5.

Coastal Water Temperatures

Place Temperature

Stations

Nearby Weather Stations

Station Location Temp. Windchill Dew Point Humidity Wind Precip. Elev Updated Type
                   

Watches & Warnings

There are currently no watches in effect.